createdAt,value
2023-02-22T00:01:50.860Z,98683.97
2023-02-22T00:06:54.160Z,98686.08
2023-02-22T00:11:56.668Z,98692.41
2023-02-22T00:17:01.375Z,98693.80
2023-02-22T00:22:03.989Z,98690.42
2023-02-22T00:27:05.953Z,98691.45
2023-02-22T00:32:09.687Z,98694.39
2023-02-22T00:37:11.961Z,98693.38
2023-02-22T00:42:14.762Z,98693.38
2023-02-22T00:47:16.777Z,98695.95
2023-02-22T00:52:18.894Z,98699.88
2023-02-22T00:57:22.297Z,98700.41
2023-02-22T01:02:24.537Z,98701.11
2023-02-22T01:07:26.911Z,98693.16
2023-02-22T01:12:29.956Z,98697.23
2023-02-22T01:17:32.140Z,98698.12
2023-02-22T01:22:34.049Z,98696.11
2023-02-22T01:27:37.293Z,98691.73
2023-02-22T01:32:41.821Z,98693.45
2023-02-22T01:37:44.824Z,98695.35
2023-02-22T01:42:51.616Z,98691.95
2023-02-22T01:47:55.934Z,98688.90
2023-02-22T01:52:58.209Z,98687.91
2023-02-22T01:58:01.150Z,98691.34
2023-02-22T02:03:08.286Z,98691.68
2023-02-22T02:08:20.463Z,98689.14
2023-02-22T02:13:22.628Z,98685.59
2023-02-22T02:18:26.711Z,98685.75
2023-02-22T02:24:16.869Z,98686.27
2023-02-22T02:30:11.878Z,98690.34
2023-02-22T02:35:26.544Z,98695.25
2023-02-22T02:41:04.396Z,98691.88
2023-02-22T02:46:14.775Z,98693.73
2023-02-22T02:51:20.034Z,98694.26
2023-02-22T02:56:26.224Z,98692.21
2023-02-22T03:02:13.481Z,98694.60
2023-02-22T03:07:22.743Z,98692.73
2023-02-22T03:13:02.517Z,98692.73
2023-02-22T03:18:09.463Z,98688.15
2023-02-22T03:23:25.527Z,98694.09
2023-02-22T03:28:30.231Z,98697.83
2023-02-22T03:33:52.328Z,98704.79
2023-02-22T03:38:58.648Z,98706.29
2023-02-22T03:44:07.440Z,98709.86
2023-02-22T03:49:35.300Z,98712.73
2023-02-22T03:54:39.198Z,98709.35
2023-02-22T03:59:41.696Z,98709.00
2023-02-22T04:04:44.144Z,98705.92
2023-02-22T04:09:46.999Z,98706.79
2023-02-22T04:14:49.199Z,98713.73
2023-02-22T04:19:51.716Z,98716.45
2023-02-22T04:24:54.249Z,98714.05
2023-02-22T04:29:56.665Z,98714.54
2023-02-22T04:34:59.663Z,98707.23
2023-02-22T04:40:09.545Z,98706.38
2023-02-22T04:45:12.310Z,98712.80
2023-02-22T04:50:16.463Z,98709.36
2023-02-22T04:55:18.958Z,98715.60
2023-02-22T05:01:21.529Z,98710.30
2023-02-22T05:07:43.380Z,98711.79
2023-02-22T05:14:05.098Z,98711.38
2023-02-22T05:19:27.153Z,98706.09
2023-02-22T05:24:29.271Z,98709.31
2023-02-22T05:29:31.361Z,98709.97
2023-02-22T05:34:33.326Z,98717.05
2023-02-22T05:39:35.355Z,98722.29
2023-02-22T05:44:37.401Z,98719.71
2023-02-22T05:49:39.352Z,98716.63
2023-02-22T05:54:41.308Z,98720.66
2023-02-22T05:59:43.432Z,98728.27
2023-02-22T06:04:46.285Z,98734.04
2023-02-22T06:09:48.519Z,98744.89
2023-02-22T06:14:50.450Z,98745.36
2023-02-22T06:19:52.585Z,98746.39
2023-02-22T06:24:55.151Z,98758.65
2023-02-22T06:29:57.572Z,98766.83
2023-02-22T06:34:59.495Z,98770.75
2023-02-22T06:40:05.597Z,98774.00
2023-02-22T06:45:08.833Z,98786.63
2023-02-22T06:50:23.606Z,98791.11
2023-02-22T06:55:28.943Z,98792.67
2023-02-22T07:00:33.208Z,98792.53
2023-02-22T07:05:35.271Z,98803.59
2023-02-22T07:10:38.035Z,98804.66
2023-02-22T07:15:40.084Z,98803.70
2023-02-22T07:20:42.387Z,98805.95
2023-02-22T07:25:44.588Z,98806.70
2023-02-22T07:30:46.667Z,98799.79
2023-02-22T07:35:50.998Z,98800.33
2023-02-22T07:40:52.993Z,98797.43
2023-02-22T07:45:57.208Z,98802.86
2023-02-22T07:50:59.955Z,98805.02
2023-02-22T07:56:03.739Z,98803.27
2023-02-22T08:01:06.179Z,98800.29
2023-02-22T08:06:08.724Z,98804.13
2023-02-22T08:11:10.760Z,98807.27
2023-02-22T08:16:13.004Z,98802.23
2023-02-22T08:21:16.591Z,98806.79
2023-02-22T08:26:20.892Z,98812.58
2023-02-22T08:31:23.228Z,98811.65
2023-02-22T08:36:25.286Z,98828.80
2023-02-22T08:41:27.330Z,98831.09
2023-02-22T08:46:29.540Z,98826.39
2023-02-22T08:51:35.275Z,98824.86
2023-02-22T08:56:37.383Z,98824.64
2023-02-22T09:01:39.731Z,98826.13
2023-02-22T09:06:42.330Z,98829.69
2023-02-22T09:11:44.354Z,98828.77
2023-02-22T09:17:46.235Z,98831.83
2023-02-22T09:24:08.075Z,98835.91
2023-02-22T09:30:32.643Z,98833.44
2023-02-22T09:37:04.354Z,98832.46
2023-02-22T09:42:37.389Z,98828.43
2023-02-22T09:47:45.142Z,98827.02
2023-02-22T09:54:05.463Z,98819.84
2023-02-22T10:00:33.087Z,98823.59
2023-02-22T10:06:03.988Z,98821.27
2023-02-22T10:11:26.157Z,98813.74
2023-02-22T10:17:23.106Z,98811.85
2023-02-22T10:23:25.046Z,98808.88
2023-02-22T10:29:32.983Z,98808.63
2023-02-22T10:35:57.352Z,98805.07
2023-02-22T10:42:14.014Z,98799.94
2023-02-22T10:48:15.856Z,98795.86
2023-02-22T10:54:43.192Z,98795.34
2023-02-22T11:00:52.988Z,98792.61
2023-02-22T11:07:00.521Z,98787.41
2023-02-22T11:13:34.499Z,98786.94
2023-02-22T11:20:12.594Z,98781.34
2023-02-22T11:26:39.882Z,98778.38
2023-02-22T11:33:01.621Z,98771.52
2023-02-22T11:39:24.345Z,98767.91
2023-02-22T11:45:57.827Z,98763.26
2023-02-22T11:52:09.196Z,98756.36
2023-02-22T11:58:01.713Z,98756.98
2023-02-22T12:03:33.462Z,98757.45
2023-02-22T12:09:43.368Z,98759.30
2023-02-22T12:15:50.684Z,98762.73
2023-02-22T12:22:12.298Z,98758.15
2023-02-22T12:28:34.051Z,98764.94
2023-02-22T12:34:47.766Z,98760.56
2023-02-22T12:41:21.775Z,98760.18
2023-02-22T12:47:02.700Z,98760.17
2023-02-22T12:52:38.021Z,98752.36
2023-02-22T12:58:40.555Z,98745.14
2023-02-22T13:05:02.541Z,98742.35
2023-02-22T13:10:26.412Z,98742.36
2023-02-22T13:15:32.980Z,98740.50
2023-02-22T13:20:47.176Z,98742.75
2023-02-22T13:26:08.345Z,98741.77
2023-02-22T13:31:28.580Z,98742.27
2023-02-22T13:36:38.002Z,98738.54
2023-02-22T13:41:49.083Z,98741.45
2023-02-22T13:47:12.740Z,98738.37
2023-02-22T13:53:17.280Z,98731.57
2023-02-22T14:00:01.419Z,98730.73
2023-02-22T14:06:01.540Z,98734.47
2023-02-22T14:11:43.495Z,98729.34
2023-02-22T14:17:28.884Z,98735.64
2023-02-22T14:22:30.999Z,98738.70
2023-02-22T14:28:38.992Z,98735.90
2023-02-22T14:34:20.355Z,98734.66
2023-02-22T14:39:38.383Z,98733.18
2023-02-22T14:45:05.150Z,98733.77
2023-02-22T14:50:17.778Z,98737.21
2023-02-22T14:55:25.816Z,98738.16
2023-02-22T15:00:38.507Z,98739.94
2023-02-22T15:05:52.010Z,98740.75
2023-02-22T15:10:54.473Z,98739.63
2023-02-22T15:16:56.228Z,98738.16
2023-02-22T15:23:18.027Z,98739.95
2023-02-22T15:28:42.013Z,98737.02
2023-02-22T15:33:44.119Z,98737.30
2023-02-22T15:38:51.421Z,98740.23
2023-02-22T15:44:23.155Z,98739.91
2023-02-22T15:49:25.954Z,98736.95
2023-02-22T15:54:28.234Z,98738.64
2023-02-22T15:59:33.822Z,98740.55
2023-02-22T16:04:36.010Z,98740.67
2023-02-22T16:10:37.813Z,98740.60
2023-02-22T16:17:08.274Z,98743.71
2023-02-22T16:22:35.566Z,98743.39
2023-02-22T16:27:47.430Z,98749.61
2023-02-22T16:33:52.078Z,98751.34
2023-02-22T16:39:32.743Z,98754.91
2023-02-22T16:44:34.745Z,98755.61
2023-02-22T16:49:38.333Z,98755.80
2023-02-22T16:55:40.108Z,98762.80
2023-02-22T17:02:01.786Z,98763.86
2023-02-22T17:08:23.526Z,98768.31
2023-02-22T17:14:45.309Z,98774.37
2023-02-22T17:21:07.257Z,98775.77
2023-02-22T17:26:29.294Z,98772.95
2023-02-22T17:31:31.609Z,98775.73
2023-02-22T17:36:36.465Z,98778.85
2023-02-22T17:41:40.452Z,98781.77
2023-02-22T17:46:42.991Z,98778.09
2023-02-22T17:52:44.883Z,98780.69
2023-02-22T17:59:06.636Z,98777.50
2023-02-22T18:05:28.308Z,98777.73
2023-02-22T18:11:40.275Z,98775.38
2023-02-22T18:16:42.652Z,98781.52
2023-02-22T18:21:47.871Z,98784.23
2023-02-22T18:26:50.521Z,98783.19
2023-02-22T18:32:52.502Z,98788.41
2023-02-22T18:39:14.154Z,98787.70
2023-02-22T18:44:29.929Z,98786.63
2023-02-22T18:49:31.866Z,98787.48
2023-02-22T18:54:34.015Z,98783.74
2023-02-22T18:59:36.022Z,98781.69
2023-02-22T19:04:38.021Z,98778.79
2023-02-22T19:09:40.205Z,98773.02
2023-02-22T19:14:42.682Z,98772.67
2023-02-22T19:19:44.868Z,98768.11
2023-02-22T19:24:46.984Z,98772.70
2023-02-22T19:29:49.687Z,98770.31
2023-02-22T19:34:53.184Z,98766.56
2023-02-22T19:40:54.981Z,98762.98
2023-02-22T19:47:16.875Z,98766.57
2023-02-22T19:53:38.557Z,98770.71
2023-02-22T19:59:03.316Z,98772.62
2023-02-22T20:04:06.271Z,98774.19
2023-02-22T20:09:12.241Z,98776.60
2023-02-22T20:14:23.677Z,98776.25
2023-02-22T20:19:27.191Z,98774.88
2023-02-22T20:25:29.096Z,98775.22
2023-02-22T20:30:52.538Z,98777.44
2023-02-22T20:35:54.515Z,98781.54
2023-02-22T20:40:56.507Z,98777.98
2023-02-22T20:46:02.544Z,98779.70
2023-02-22T20:51:12.083Z,98779.58
2023-02-22T20:56:15.844Z,98774.52
2023-02-22T21:01:20.370Z,98778.59
2023-02-22T21:06:31.078Z,98774.69
2023-02-22T21:11:33.412Z,98774.35
2023-02-22T21:16:36.802Z,98768.41
2023-02-22T21:21:38.894Z,98769.09
2023-02-22T21:26:40.883Z,98767.03
2023-02-22T21:31:43.241Z,98764.13
2023-02-22T21:36:46.283Z,98756.48
2023-02-22T21:42:48.044Z,98753.94
2023-02-22T21:48:10.191Z,98750.02
2023-02-22T21:53:12.925Z,98752.05
2023-02-22T21:58:15.018Z,98758.30
2023-02-22T22:03:20.583Z,98752.17
2023-02-22T22:08:25.166Z,98743.48
2023-02-22T22:13:29.191Z,98741.75
2023-02-22T22:18:31.225Z,98735.77
2023-02-22T22:23:33.357Z,98738.80
2023-02-22T22:28:35.791Z,98735.39
2023-02-22T22:33:40.201Z,98731.98
2023-02-22T22:38:43.274Z,98728.91
2023-02-22T22:43:46.361Z,98725.48
2023-02-22T22:48:48.594Z,98728.33
2023-02-22T22:53:51.476Z,98730.79
2023-02-22T22:58:56.509Z,98734.10
2023-02-22T23:04:03.201Z,98733.52
2023-02-22T23:09:11.768Z,98734.88
2023-02-22T23:14:19.096Z,98737.23
2023-02-22T23:19:21.133Z,98737.23
2023-02-22T23:24:27.492Z,98743.80
2023-02-22T23:29:32.436Z,98749.33
2023-02-22T23:34:36.010Z,98745.51
2023-02-22T23:39:38.658Z,98744.31
2023-02-22T23:44:40.662Z,98742.23
2023-02-22T23:49:45.392Z,98742.69
2023-02-22T23:54:47.416Z,98743.81
2023-02-22T23:59:51.593Z,98748.14
